createdAt,value
2022-12-23T12:58:57.744Z,16.83
2022-12-23T12:59:27.691Z,16.93
2022-12-23T13:00:05.267Z,16.90
2022-12-23T13:00:28.663Z,16.93
2022-12-23T13:00:57.729Z,16.99
2022-12-23T13:01:27.743Z,16.99
2022-12-23T13:01:57.769Z,16.91
2022-12-23T13:02:27.760Z,16.96
2022-12-23T13:02:57.615Z,16.91
2022-12-23T13:03:27.579Z,17.11
2022-12-23T13:03:57.541Z,17.01
2022-12-23T13:04:27.516Z,17.15
2022-12-23T13:04:57.477Z,17.15
2022-12-23T13:05:27.459Z,17.26
2022-12-23T13:05:57.404Z,17.36
2022-12-23T13:06:27.360Z,17.44
2022-12-23T13:06:57.341Z,17.48
2022-12-23T13:07:27.308Z,17.57
2022-12-23T13:07:57.265Z,17.52
2022-12-23T13:08:27.243Z,17.57
2022-12-23T13:08:57.213Z,17.59
2022-12-23T13:09:27.147Z,17.57
2022-12-23T13:09:57.105Z,17.68
2022-12-23T13:10:27.076Z,17.76
2022-12-23T13:10:57.031Z,17.94
2022-12-23T13:11:28.758Z,18.00
2022-12-23T13:11:56.947Z,18.07
2022-12-23T13:12:26.892Z,18.16
2022-12-23T13:12:56.858Z,18.20
2022-12-23T13:13:26.808Z,18.35
2022-12-23T13:13:56.809Z,18.45
2022-12-23T13:14:26.730Z,18.55
2022-12-23T13:14:56.670Z,18.50
2022-12-23T13:15:26.619Z,18.49
2022-12-23T13:15:56.581Z,18.53
2022-12-23T13:16:26.563Z,18.56
2022-12-23T13:16:56.530Z,18.55
2022-12-23T13:17:26.446Z,18.66
2022-12-23T13:18:00.369Z,18.71
2022-12-23T13:18:27.341Z,18.75
2022-12-23T13:18:56.274Z,18.89
2022-12-23T13:19:26.217Z,18.98
2022-12-23T13:19:56.177Z,18.95
2022-12-23T13:20:26.142Z,18.93
2022-12-23T13:20:56.071Z,19.04
2022-12-23T13:21:26.007Z,19.14
2022-12-23T13:21:55.992Z,19.18
2022-12-23T13:22:25.904Z,19.16
2022-12-23T13:22:55.873Z,19.16
2022-12-23T13:24:03.445Z,19.09
2022-12-23T13:24:26.732Z,19.11
2022-12-23T13:24:55.826Z,19.08
2022-12-23T13:25:25.656Z,19.11
2022-12-23T13:25:55.560Z,19.00
2022-12-23T13:26:25.489Z,19.00
2022-12-23T13:26:55.494Z,19.09
2022-12-23T13:27:25.375Z,19.18
2022-12-23T13:27:55.328Z,19.27
2022-12-23T13:28:25.262Z,19.27
2022-12-23T13:28:55.213Z,19.33
2022-12-23T13:29:25.153Z,19.48
2022-12-23T13:29:58.230Z,19.44
2022-12-23T13:30:25.051Z,19.37
2022-12-23T13:30:55.088Z,19.55
2022-12-23T13:31:25.063Z,19.56
2022-12-23T13:31:54.912Z,19.56
2022-12-23T13:32:24.841Z,19.56
2022-12-23T13:32:54.768Z,19.47
2022-12-23T13:33:24.707Z,19.30
2022-12-23T13:33:54.652Z,19.31
2022-12-23T13:34:24.592Z,19.31
2022-12-23T13:34:54.538Z,19.27
2022-12-23T13:35:24.472Z,19.18
2022-12-23T13:35:59.757Z,19.18
2022-12-23T13:36:25.391Z,19.16
2022-12-23T13:36:54.368Z,19.08
2022-12-23T13:37:24.224Z,19.12
2022-12-23T13:37:54.186Z,19.04
2022-12-23T13:38:24.102Z,19.12
2022-12-23T13:38:54.053Z,19.11
2022-12-23T13:39:23.987Z,19.04
2022-12-23T13:39:53.961Z,19.12
2022-12-23T13:40:23.868Z,19.00
2022-12-23T13:40:53.820Z,19.11
2022-12-23T13:41:23.745Z,19.11
2022-12-23T13:41:53.709Z,18.99
2022-12-23T13:42:23.640Z,19.11
2022-12-23T13:42:53.571Z,19.07
2022-12-23T13:43:23.506Z,19.09
2022-12-23T13:43:53.467Z,19.14
2022-12-23T13:44:23.417Z,18.95
2022-12-23T13:44:53.331Z,19.02
2022-12-23T13:45:23.388Z,18.95
2022-12-23T13:45:53.258Z,18.98
2022-12-23T13:46:23.248Z,18.96
2022-12-23T13:46:53.087Z,18.93
2022-12-23T13:47:23.024Z,18.88
2022-12-23T13:47:52.968Z,18.88
2022-12-23T13:48:22.906Z,18.90
2022-12-23T13:48:52.847Z,18.86
2022-12-23T13:49:22.813Z,18.80
2022-12-23T13:49:52.724Z,18.77
2022-12-23T13:50:22.666Z,18.89
2022-12-23T13:50:52.606Z,18.83
2022-12-23T13:51:22.555Z,18.81
2022-12-23T13:51:52.480Z,18.78
2022-12-23T13:52:22.428Z,18.78
2022-12-23T13:52:52.357Z,18.75
2022-12-23T13:53:22.386Z,18.70
2022-12-23T13:53:52.264Z,18.68
2022-12-23T13:54:22.200Z,18.65
2022-12-23T13:54:52.120Z,18.63
2022-12-23T13:55:22.099Z,18.68
2022-12-23T13:55:52.005Z,18.68
2022-12-23T13:56:21.957Z,18.65
2022-12-23T13:56:51.891Z,18.55
2022-12-23T13:57:21.837Z,18.58
2022-12-23T13:57:51.773Z,18.63
2022-12-23T13:58:21.722Z,18.52
2022-12-23T13:58:51.656Z,18.60
2022-12-23T13:59:21.638Z,18.52
2022-12-23T13:59:51.540Z,18.56
2022-12-23T14:00:21.494Z,18.58
2022-12-23T14:00:51.453Z,18.70
2022-12-23T14:01:21.427Z,18.62
2022-12-23T14:01:51.389Z,18.63
2022-12-23T14:02:21.294Z,18.53
2022-12-23T14:02:51.272Z,18.47
2022-12-23T14:03:21.133Z,18.66
2022-12-23T14:03:51.082Z,18.53
2022-12-23T14:04:21.038Z,18.50
2022-12-23T14:04:51.872Z,18.63
2022-12-23T14:05:20.907Z,18.63
2022-12-23T14:05:51.042Z,18.66
2022-12-23T14:06:20.789Z,18.62
2022-12-23T14:06:50.724Z,18.63
2022-12-23T14:07:20.674Z,18.74
2022-12-23T14:07:50.601Z,18.65
2022-12-23T14:08:20.588Z,18.65
2022-12-23T14:08:50.511Z,18.66
2022-12-23T14:09:20.437Z,18.56
2022-12-23T14:09:50.370Z,18.65
2022-12-23T14:10:20.322Z,18.63
2022-12-23T14:10:50.255Z,18.59
2022-12-23T14:11:20.208Z,18.58
2022-12-23T14:11:50.142Z,18.68
2022-12-23T14:12:20.121Z,18.60
2022-12-23T14:12:50.035Z,18.58
2022-12-23T14:13:19.989Z,18.63
2022-12-23T14:13:49.915Z,18.65
2022-12-23T14:14:19.878Z,18.74
2022-12-23T14:14:49.792Z,18.73
2022-12-23T14:15:19.766Z,18.73
2022-12-23T14:15:49.811Z,18.75
2022-12-23T14:16:19.722Z,18.78
2022-12-23T14:16:49.575Z,18.77
2022-12-23T14:17:19.521Z,18.77
2022-12-23T14:17:49.457Z,18.83
2022-12-23T14:18:19.413Z,18.74
2022-12-23T14:18:49.370Z,18.77
2022-12-23T14:19:19.298Z,18.77
2022-12-23T14:19:49.249Z,18.62
2022-12-23T14:20:19.188Z,18.66
2022-12-23T14:20:49.132Z,18.63
2022-12-23T14:21:19.080Z,18.70
2022-12-23T14:21:49.042Z,18.65
2022-12-23T14:22:18.971Z,18.65
2022-12-23T14:22:48.911Z,18.65
2022-12-23T14:23:18.906Z,18.65
2022-12-23T14:23:48.794Z,18.66
2022-12-23T14:24:18.749Z,18.66
2022-12-23T14:24:48.676Z,18.71
2022-12-23T14:25:18.661Z,18.65
2022-12-23T14:25:48.589Z,18.66
2022-12-23T14:26:18.519Z,18.66
2022-12-23T14:26:48.449Z,18.68
2022-12-23T14:27:18.421Z,18.62
2022-12-23T14:27:48.339Z,18.63
2022-12-23T14:28:18.316Z,18.70
2022-12-23T14:28:48.227Z,18.70
2022-12-23T14:29:18.178Z,18.71
2022-12-23T14:29:48.107Z,18.66
2022-12-23T14:30:18.085Z,18.60
2022-12-23T14:30:48.093Z,18.58
2022-12-23T14:31:18.048Z,18.58
2022-12-23T14:31:48.010Z,18.59
2022-12-23T14:32:17.833Z,18.55
2022-12-23T14:32:47.767Z,18.55
2022-12-23T14:33:17.738Z,18.66
2022-12-23T14:33:47.655Z,18.65
2022-12-23T14:34:17.607Z,18.58
2022-12-23T14:34:47.537Z,18.60
2022-12-23T14:35:17.597Z,18.53
2022-12-23T14:35:47.450Z,18.52
2022-12-23T14:36:17.457Z,18.56
2022-12-23T14:36:47.457Z,18.56
2022-12-23T14:37:17.266Z,18.55
2022-12-23T14:37:47.204Z,18.53
2022-12-23T14:38:17.163Z,18.56
2022-12-23T14:38:47.097Z,18.62
2022-12-23T14:39:17.053Z,18.60
2022-12-23T14:39:46.988Z,18.60
2022-12-23T14:40:16.955Z,18.68
2022-12-23T14:40:46.871Z,18.60
2022-12-23T14:41:16.825Z,18.66
2022-12-23T14:41:46.783Z,18.65
2022-12-23T14:42:16.954Z,18.66
2022-12-23T14:42:46.645Z,18.62
2022-12-23T14:43:16.611Z,18.63
2022-12-23T14:43:46.557Z,18.60
2022-12-23T14:44:16.489Z,18.62
2022-12-23T14:44:46.449Z,18.62
2022-12-23T14:45:16.379Z,18.59
2022-12-23T14:45:46.319Z,18.53
2022-12-23T14:46:16.309Z,18.55
2022-12-23T14:46:46.304Z,18.52
2022-12-23T14:47:20.975Z,18.52
2022-12-23T14:47:47.125Z,18.53
2022-12-23T14:48:16.075Z,18.55
2022-12-23T14:48:46.003Z,18.56
2022-12-23T14:49:38.358Z,18.56
2022-12-23T14:49:46.891Z,18.56
2022-12-23T14:50:15.844Z,18.55
2022-12-23T14:50:45.783Z,18.56
2022-12-23T14:51:15.743Z,18.49
2022-12-23T14:51:45.703Z,18.47
2022-12-23T14:52:15.626Z,18.52
2022-12-23T14:52:45.566Z,18.50
2022-12-23T14:53:15.528Z,18.49
2022-12-23T14:53:45.463Z,18.56
2022-12-23T14:54:15.479Z,18.49
2022-12-23T14:55:00.332Z,18.49
2022-12-23T14:55:32.335Z,18.49
2022-12-23T14:55:46.258Z,18.45
2022-12-23T14:56:15.218Z,18.52
2022-12-23T14:56:45.143Z,18.45
2022-12-23T14:57:15.100Z,18.55
2022-12-23T14:57:45.039Z,18.49
2022-12-23T14:58:14.973Z,18.47
2022-12-23T14:58:44.904Z,18.50
2022-12-23T14:59:14.881Z,18.52
2022-12-23T14:59:44.793Z,18.47
2022-12-23T15:00:14.751Z,18.45
2022-12-23T15:00:44.735Z,18.49
2022-12-23T15:01:14.739Z,18.53
2022-12-23T15:01:44.667Z,18.52
2022-12-23T15:02:14.605Z,18.52
2022-12-23T15:02:44.526Z,18.49
2022-12-23T15:03:14.517Z,18.53
2022-12-23T15:03:44.367Z,18.47
2022-12-23T15:04:14.357Z,18.50
2022-12-23T15:04:44.280Z,18.50
2022-12-23T15:05:14.223Z,18.52
2022-12-23T15:05:44.159Z,18.55
2022-12-23T15:06:14.110Z,18.53
2022-12-23T15:06:44.055Z,18.45
2022-12-23T15:07:14.027Z,18.45
2022-12-23T15:07:43.947Z,18.53
2022-12-23T15:08:13.911Z,18.44
2022-12-23T15:08:43.839Z,18.52
2022-12-23T15:09:13.803Z,18.49
2022-12-23T15:09:43.740Z,18.41
2022-12-23T15:10:13.686Z,18.49
2022-12-23T15:10:43.634Z,18.50
2022-12-23T15:11:13.628Z,18.43
2022-12-23T15:11:43.535Z,18.49
2022-12-23T15:12:13.489Z,18.49
2022-12-23T15:12:43.457Z,18.50
2022-12-23T15:13:13.388Z,18.50
2022-12-23T15:13:43.347Z,18.52
2022-12-23T15:14:13.294Z,18.56
2022-12-23T15:14:43.236Z,18.50
2022-12-23T15:15:13.191Z,18.49
2022-12-23T15:15:43.176Z,18.47
2022-12-23T15:16:13.120Z,18.55
2022-12-23T15:16:43.076Z,18.53
2022-12-23T15:17:13.002Z,18.44
2022-12-23T15:17:42.928Z,18.44
2022-12-23T15:18:12.909Z,18.52
2022-12-23T15:18:42.853Z,18.50
2022-12-23T15:19:12.779Z,18.45
2022-12-23T15:19:42.715Z,18.47
2022-12-23T15:20:12.702Z,18.41
2022-12-23T15:20:42.612Z,18.45
2022-12-23T15:21:12.620Z,18.45
2022-12-23T15:21:46.149Z,18.49
2022-12-23T15:22:22.088Z,18.47
2022-12-23T15:22:43.422Z,18.49
2022-12-23T15:23:12.355Z,18.52
2022-12-23T15:23:42.293Z,18.45
2022-12-23T15:24:12.259Z,18.52
2022-12-23T15:24:42.188Z,18.53
2022-12-23T15:25:12.152Z,18.55
2022-12-23T15:25:42.064Z,18.53
2022-12-23T15:26:12.017Z,18.52
2022-12-23T15:27:03.447Z,18.53
2022-12-23T15:27:29.629Z,18.50
2022-12-23T15:27:42.844Z,18.50
2022-12-23T15:28:11.821Z,18.47
2022-12-23T15:28:41.817Z,18.50
2022-12-23T15:29:11.701Z,18.52
2022-12-23T15:29:41.662Z,18.55
2022-12-23T15:30:11.603Z,18.56
2022-12-23T15:30:41.538Z,18.52
2022-12-23T15:31:11.522Z,18.49
2022-12-23T15:31:41.495Z,18.52
2022-12-23T15:32:11.390Z,18.44
2022-12-23T15:32:41.331Z,18.44
2022-12-23T15:33:43.336Z,18.43
2022-12-23T15:34:17.025Z,18.44
2022-12-23T15:34:42.120Z,18.40
2022-12-23T15:35:11.096Z,18.35
2022-12-23T15:35:41.027Z,18.34
2022-12-23T15:36:11.049Z,18.41
2022-12-23T15:36:41.002Z,18.35
2022-12-23T15:37:10.875Z,18.43
2022-12-23T15:37:40.814Z,18.40
2022-12-23T15:38:10.779Z,18.35
2022-12-23T15:38:40.721Z,18.33
2022-12-23T15:39:10.725Z,18.29
2022-12-23T15:39:40.622Z,18.29
2022-12-23T15:40:13.579Z,18.29
2022-12-23T15:40:40.506Z,18.31
2022-12-23T15:41:10.468Z,18.34
2022-12-23T15:41:40.405Z,18.23
2022-12-23T15:42:10.367Z,18.33
2022-12-23T15:42:40.348Z,18.29
2022-12-23T15:43:10.261Z,18.31
2022-12-23T15:43:40.213Z,18.33
2022-12-23T15:44:10.161Z,18.28
2022-12-23T15:44:40.101Z,18.33
2022-12-23T15:45:10.088Z,18.28
2022-12-23T15:45:40.015Z,18.28
2022-12-23T15:46:10.071Z,18.33
2022-12-23T15:46:39.954Z,18.31
2022-12-23T15:47:09.921Z,18.31
2022-12-23T15:47:39.816Z,18.35
2022-12-23T15:48:09.756Z,18.38
2022-12-23T15:48:39.695Z,18.23
2022-12-23T15:49:09.678Z,18.31
2022-12-23T15:49:39.593Z,18.25
2022-12-23T15:50:09.548Z,18.33
2022-12-23T15:50:39.518Z,18.33
2022-12-23T15:51:09.446Z,18.31
2022-12-23T15:52:17.948Z,18.25
2022-12-23T15:52:40.293Z,18.29
2022-12-23T15:53:09.227Z,18.33
2022-12-23T15:53:39.174Z,18.22
2022-12-23T15:54:09.133Z,18.29
2022-12-23T15:54:39.064Z,18.20
2022-12-23T15:55:09.021Z,18.28
2022-12-23T15:55:38.966Z,18.38
2022-12-23T15:56:08.923Z,18.22
2022-12-23T15:56:38.892Z,18.23
2022-12-23T15:57:08.815Z,18.26
2022-12-23T15:57:38.771Z,18.15
2022-12-23T15:58:08.711Z,18.31
2022-12-23T15:58:38.669Z,18.26
2022-12-23T15:59:08.626Z,18.22
2022-12-23T15:59:38.580Z,18.29
2022-12-23T16:00:08.493Z,18.23
2022-12-23T16:00:38.461Z,18.23
2022-12-23T16:01:08.408Z,18.26
2022-12-23T16:01:38.507Z,18.18
2022-12-23T16:02:32.063Z,18.22
2022-12-23T16:03:15.620Z,18.19
2022-12-23T16:03:39.400Z,18.20
2022-12-23T16:04:08.201Z,18.22
2022-12-23T16:04:38.165Z,18.19
2022-12-23T16:05:08.020Z,18.28
2022-12-23T16:05:37.965Z,18.23
2022-12-23T16:06:07.899Z,18.26
2022-12-23T16:06:37.877Z,18.25
2022-12-23T16:07:07.806Z,18.25
2022-12-23T16:07:37.773Z,18.23
2022-12-23T16:08:07.713Z,18.19
2022-12-23T16:08:37.668Z,18.15
2022-12-23T16:09:07.608Z,18.18
2022-12-23T16:09:37.589Z,18.16
2022-12-23T16:10:07.511Z,18.22
2022-12-23T16:10:37.494Z,18.25
2022-12-23T16:11:07.421Z,18.25
2022-12-23T16:11:37.379Z,18.16
2022-12-23T16:12:07.318Z,18.13
2022-12-23T16:12:37.335Z,18.15
2022-12-23T16:13:07.222Z,18.15
2022-12-23T16:13:41.504Z,18.11
2022-12-23T16:14:08.126Z,18.11
2022-12-23T16:14:37.090Z,18.15
2022-12-23T16:15:07.044Z,18.13
2022-12-23T16:15:36.979Z,18.10
2022-12-23T16:16:07.032Z,18.13
2022-12-23T16:16:36.956Z,18.11
2022-12-23T16:17:06.812Z,18.11
2022-12-23T16:17:36.772Z,18.13
2022-12-23T16:18:06.736Z,18.01
2022-12-23T16:18:37.655Z,18.10
2022-12-23T16:19:06.613Z,18.08
2022-12-23T16:19:36.567Z,18.08
2022-12-23T16:20:06.536Z,18.08
2022-12-23T16:20:36.468Z,18.04
2022-12-23T16:21:06.409Z,18.07
2022-12-23T16:21:36.409Z,18.16
2022-12-23T16:22:06.305Z,18.08
2022-12-23T16:22:36.282Z,18.04
2022-12-23T16:23:06.200Z,18.05
2022-12-23T16:23:36.153Z,18.03
2022-12-23T16:24:06.095Z,18.04
2022-12-23T16:24:36.067Z,18.01
2022-12-23T16:25:05.991Z,18.10
2022-12-23T16:25:35.970Z,18.07
2022-12-23T16:26:05.891Z,18.11
2022-12-23T16:26:35.866Z,18.10
2022-12-23T16:27:05.789Z,18.07
2022-12-23T16:27:35.741Z,18.04
2022-12-23T16:28:05.680Z,18.07
2022-12-23T16:28:35.636Z,18.05
2022-12-23T16:29:05.573Z,18.07
2022-12-23T16:29:35.571Z,18.04
2022-12-23T16:30:05.498Z,18.08
2022-12-23T16:30:35.464Z,18.00
2022-12-23T16:31:05.433Z,18.08
2022-12-23T16:31:35.361Z,18.00
2022-12-23T16:32:05.362Z,18.08
2022-12-23T16:32:35.207Z,18.07
2022-12-23T16:33:05.140Z,18.03
2022-12-23T16:33:35.098Z,18.10
2022-12-23T16:34:05.041Z,18.07
2022-12-23T16:34:35.013Z,18.00
2022-12-23T16:35:04.932Z,18.07
2022-12-23T16:35:34.901Z,18.05
2022-12-23T16:36:04.875Z,18.08
2022-12-23T16:36:34.897Z,18.08
2022-12-23T16:37:04.709Z,18.08
2022-12-23T16:37:34.664Z,18.05
2022-12-23T16:38:04.623Z,18.07
2022-12-23T16:38:34.559Z,18.10
2022-12-23T16:39:04.493Z,18.08
2022-12-23T16:39:34.447Z,18.08
2022-12-23T16:40:04.390Z,18.07
2022-12-23T16:40:34.344Z,18.07
2022-12-23T16:41:04.280Z,18.07
2022-12-23T16:41:34.245Z,18.08
2022-12-23T16:42:04.176Z,18.00
2022-12-23T16:42:34.138Z,18.00
2022-12-23T16:43:04.103Z,17.97
2022-12-23T16:43:34.037Z,17.94
2022-12-23T16:44:03.980Z,17.94
2022-12-23T16:44:33.934Z,17.94
2022-12-23T16:45:03.882Z,17.94
2022-12-23T16:45:33.832Z,17.94
2022-12-23T16:46:04.138Z,18.03
2022-12-23T16:46:33.721Z,18.04
2022-12-23T16:47:03.675Z,17.98
2022-12-23T16:47:33.608Z,17.98
2022-12-23T16:48:03.549Z,17.97
2022-12-23T16:48:33.752Z,17.98
2022-12-23T16:49:04.991Z,18.03
2022-12-23T16:49:34.160Z,17.97
2022-12-23T16:50:03.341Z,17.97
2022-12-23T16:50:33.301Z,17.97
2022-12-23T16:51:03.269Z,17.94
2022-12-23T16:51:33.326Z,18.01
2022-12-23T16:52:03.166Z,17.95
2022-12-23T16:52:33.089Z,17.95
2022-12-23T16:53:03.040Z,18.01
2022-12-23T16:53:33.012Z,17.92
2022-12-23T16:54:02.943Z,17.97
2022-12-23T16:54:33.145Z,17.87
2022-12-23T16:55:02.942Z,17.89
2022-12-23T16:55:32.783Z,17.97
2022-12-23T16:56:02.731Z,17.97
2022-12-23T16:56:32.745Z,17.98
2022-12-23T16:57:02.618Z,17.92
2022-12-23T16:57:32.576Z,17.97
2022-12-23T16:58:02.750Z,17.97
2022-12-23T16:58:32.495Z,17.94
2022-12-23T16:59:03.409Z,17.90
2022-12-23T16:59:32.965Z,17.86
2022-12-23T17:00:02.448Z,17.86
2022-12-23T17:00:32.349Z,17.89
2022-12-23T17:01:02.421Z,17.90
2022-12-23T17:01:32.363Z,17.89
2022-12-23T17:02:03.961Z,17.86
2022-12-23T17:02:32.959Z,17.90
2022-12-23T17:03:02.053Z,17.90
2022-12-23T17:03:32.038Z,17.94
2022-12-23T17:04:01.974Z,17.90
2022-12-23T17:04:31.883Z,17.97
2022-12-23T17:05:01.874Z,17.98
2022-12-23T17:05:31.780Z,17.94
2022-12-23T17:06:01.726Z,17.92
2022-12-23T17:06:31.707Z,17.89
2022-12-23T17:07:01.663Z,17.90
2022-12-23T17:07:31.603Z,17.89
2022-12-23T17:08:01.524Z,17.95
2022-12-23T17:08:31.480Z,17.90
2022-12-23T17:09:01.468Z,17.85
2022-12-23T17:09:31.406Z,17.89
2022-12-23T17:10:01.327Z,17.82
2022-12-23T17:10:31.280Z,17.92
2022-12-23T17:11:01.227Z,17.86
2022-12-23T17:11:31.185Z,17.86
2022-12-23T17:12:01.142Z,17.89
2022-12-23T17:12:31.083Z,17.90
2022-12-23T17:13:01.024Z,17.92
2022-12-23T17:13:30.999Z,17.85
2022-12-23T17:14:05.667Z,17.85
2022-12-23T17:14:31.903Z,17.86
2022-12-23T17:15:00.837Z,17.89
2022-12-23T17:15:30.789Z,17.86
2022-12-23T17:16:00.807Z,17.87
2022-12-23T17:16:30.798Z,17.90
2022-12-23T17:17:00.716Z,17.89
2022-12-23T17:17:30.609Z,17.85
2022-12-23T17:18:00.613Z,17.92
2022-12-23T17:18:30.493Z,17.90
2022-12-23T17:19:00.444Z,17.89
2022-12-23T17:19:30.427Z,17.89
2022-12-23T17:20:00.361Z,17.85
2022-12-23T17:20:30.305Z,17.94
2022-12-23T17:21:00.237Z,17.92
2022-12-23T17:21:30.236Z,17.90
2022-12-23T17:22:00.215Z,17.86
2022-12-23T17:22:30.119Z,17.95
2022-12-23T17:23:00.050Z,17.92
2022-12-23T17:23:30.000Z,17.92
2022-12-23T17:23:59.983Z,17.87
2022-12-23T17:24:29.953Z,17.92
2022-12-23T17:24:59.895Z,17.89
2022-12-23T17:25:29.828Z,17.92
2022-12-23T17:25:59.760Z,17.89
2022-12-23T17:26:29.736Z,17.85
2022-12-23T17:26:59.676Z,17.94
2022-12-23T17:27:29.652Z,17.85
2022-12-23T17:27:59.581Z,17.92
2022-12-23T17:28:29.546Z,17.92
2022-12-23T17:28:59.484Z,17.89
2022-12-23T17:29:29.464Z,17.87
2022-12-23T17:29:59.389Z,17.87
2022-12-23T17:30:29.348Z,17.89
2022-12-23T17:30:59.335Z,17.90
2022-12-23T17:31:29.303Z,17.89
2022-12-23T17:31:59.246Z,17.80
2022-12-23T17:32:29.234Z,17.95
2022-12-23T17:32:59.108Z,17.90
2022-12-23T17:33:29.094Z,17.82
2022-12-23T17:33:59.042Z,17.90
2022-12-23T17:34:29.013Z,17.89
2022-12-23T17:34:58.932Z,17.95
2022-12-23T17:35:28.894Z,17.97
2022-12-23T17:35:59.010Z,17.89
2022-12-23T17:36:28.906Z,17.89
2022-12-23T17:36:59.026Z,17.90
2022-12-23T17:37:28.684Z,17.90
2022-12-23T17:37:58.635Z,17.83
2022-12-23T17:38:28.611Z,17.90
2022-12-23T17:38:58.496Z,17.92
2022-12-23T17:39:28.477Z,17.85
2022-12-23T17:39:58.411Z,17.85
2022-12-23T17:40:28.347Z,17.89
2022-12-23T17:40:58.297Z,17.94
2022-12-23T17:41:28.248Z,17.89
2022-12-23T17:41:58.207Z,17.95
2022-12-23T17:42:28.144Z,17.86
2022-12-23T17:42:58.095Z,17.85
2022-12-23T17:43:28.048Z,17.89
2022-12-23T17:43:57.997Z,17.86
2022-12-23T17:44:27.979Z,17.78
2022-12-23T17:44:57.956Z,17.89
2022-12-23T17:45:27.900Z,17.82
2022-12-23T17:45:57.969Z,17.86
2022-12-23T17:46:27.799Z,17.78
2022-12-23T17:46:57.703Z,17.83
2022-12-23T17:47:27.662Z,17.76
2022-12-23T17:47:57.607Z,17.86
2022-12-23T17:48:31.718Z,17.82
2022-12-23T17:48:57.549Z,17.76
2022-12-23T17:49:27.458Z,17.74
2022-12-23T17:49:57.405Z,17.72
2022-12-23T17:50:27.356Z,17.79
2022-12-23T17:50:57.298Z,17.76
2022-12-23T17:51:27.271Z,17.71
2022-12-23T17:51:57.227Z,17.80
2022-12-23T17:52:27.166Z,17.82
2022-12-23T17:52:57.129Z,17.74
2022-12-23T17:53:27.096Z,17.74
2022-12-23T17:53:57.964Z,17.79
2022-12-23T17:54:26.960Z,17.85
2022-12-23T17:54:56.899Z,17.83
2022-12-23T17:55:26.862Z,17.72
2022-12-23T17:55:56.804Z,17.78
2022-12-23T17:56:26.774Z,17.87
2022-12-23T17:56:56.705Z,17.82
2022-12-23T17:57:26.674Z,17.72
2022-12-23T17:57:56.612Z,17.83
2022-12-23T17:58:26.607Z,17.79
2022-12-23T17:58:56.539Z,17.78
2022-12-23T17:59:26.503Z,17.78
2022-12-23T17:59:56.939Z,17.74
2022-12-23T18:00:33.887Z,17.78
2022-12-23T18:00:57.370Z,17.76
2022-12-23T18:01:26.440Z,17.78
2022-12-23T18:01:56.352Z,17.71
2022-12-23T18:02:26.289Z,17.74
2022-12-23T18:02:56.229Z,17.83
2022-12-23T18:03:26.138Z,17.80
2022-12-23T18:03:56.051Z,17.78
2022-12-23T18:04:26.025Z,17.78
2022-12-23T18:04:55.969Z,17.71
2022-12-23T18:05:25.982Z,17.72
2022-12-23T18:06:01.533Z,17.80
2022-12-23T18:06:26.813Z,17.72
2022-12-23T18:06:55.773Z,17.72
2022-12-23T18:07:25.701Z,17.76
2022-12-23T18:07:55.666Z,17.72
2022-12-23T18:08:25.625Z,17.78
2022-12-23T18:08:55.567Z,17.74
2022-12-23T18:09:25.535Z,17.72
2022-12-23T18:09:55.480Z,17.78
2022-12-23T18:10:25.406Z,17.78
2022-12-23T18:10:55.369Z,17.76
2022-12-23T18:11:25.315Z,17.82
2022-12-23T18:11:55.264Z,17.72
2022-12-23T18:12:25.440Z,17.68
2022-12-23T18:12:55.163Z,17.70
2022-12-23T18:13:25.123Z,17.78
2022-12-23T18:13:55.071Z,17.71
2022-12-23T18:14:25.009Z,17.76
2022-12-23T18:14:54.969Z,17.78
2022-12-23T18:15:24.932Z,17.76
2022-12-23T18:15:54.885Z,17.74
2022-12-23T18:16:24.882Z,17.70
2022-12-23T18:16:54.815Z,17.68
2022-12-23T18:17:24.713Z,17.76
2022-12-23T18:17:54.670Z,17.72
2022-12-23T18:18:33.003Z,17.72
2022-12-23T18:18:55.568Z,17.74
2022-12-23T18:19:24.539Z,17.71
2022-12-23T18:19:54.483Z,17.82
2022-12-23T18:20:24.417Z,17.76
2022-12-23T18:20:54.385Z,17.72
2022-12-23T18:21:24.326Z,17.79
2022-12-23T18:21:54.289Z,17.74
2022-12-23T18:22:24.232Z,17.78
2022-12-23T18:22:54.241Z,17.72
2022-12-23T18:23:24.225Z,17.72
2022-12-23T18:23:54.125Z,17.72
2022-12-23T18:24:24.053Z,17.74
2022-12-23T18:24:59.135Z,17.80
2022-12-23T18:25:24.986Z,17.71
2022-12-23T18:25:53.909Z,17.72
2022-12-23T18:26:23.861Z,17.74
2022-12-23T18:26:53.821Z,17.76
2022-12-23T18:27:23.767Z,17.71
2022-12-23T18:27:53.719Z,17.71
2022-12-23T18:28:23.685Z,17.78
2022-12-23T18:28:53.625Z,17.76
2022-12-23T18:29:23.574Z,17.68
2022-12-23T18:29:53.540Z,17.71
2022-12-23T18:30:23.482Z,17.68
2022-12-23T18:30:53.479Z,17.68
2022-12-23T18:31:23.520Z,17.76
2022-12-23T18:31:53.365Z,17.68
2022-12-23T18:32:23.330Z,17.70
2022-12-23T18:32:53.266Z,17.72
2022-12-23T18:33:23.207Z,17.68
2022-12-23T18:33:53.172Z,17.71
2022-12-23T18:34:23.123Z,17.71
2022-12-23T18:34:53.077Z,17.70
2022-12-23T18:35:23.022Z,17.74
2022-12-23T18:35:52.994Z,17.76
2022-12-23T18:36:22.983Z,17.80
2022-12-23T18:36:52.970Z,17.76
2022-12-23T18:37:22.830Z,17.79
2022-12-23T18:37:52.827Z,17.70
2022-12-23T18:38:22.732Z,17.76
2022-12-23T18:38:52.704Z,17.78
2022-12-23T18:39:22.653Z,17.76
2022-12-23T18:39:52.600Z,17.80
2022-12-23T18:40:24.073Z,17.78
2022-12-23T18:40:52.497Z,17.79
2022-12-23T18:41:22.436Z,17.71
2022-12-23T18:41:52.399Z,17.70
2022-12-23T18:42:22.367Z,17.72
2022-12-23T18:42:52.306Z,17.70
2022-12-23T18:43:22.253Z,17.71
2022-12-23T18:43:52.211Z,17.68
2022-12-23T18:44:22.157Z,17.74
2022-12-23T18:44:52.120Z,17.72
2022-12-23T18:45:22.062Z,17.82
2022-12-23T18:45:53.596Z,17.74
2022-12-23T18:46:22.098Z,17.72
2022-12-23T18:46:52.033Z,17.78
2022-12-23T18:47:21.895Z,17.76
2022-12-23T18:47:51.840Z,17.74
2022-12-23T18:48:21.913Z,17.76
2022-12-23T18:48:51.842Z,17.74
2022-12-23T18:49:21.674Z,17.68
2022-12-23T18:49:51.639Z,17.78
2022-12-23T18:50:21.590Z,17.72
2022-12-23T18:50:51.547Z,17.79
2022-12-23T18:51:21.499Z,17.76
2022-12-23T18:51:51.470Z,17.76
2022-12-23T18:52:21.396Z,17.68
2022-12-23T18:52:51.358Z,17.76
2022-12-23T18:53:24.227Z,17.76
2022-12-23T18:53:51.275Z,17.79
2022-12-23T18:54:21.210Z,17.74
2022-12-23T18:54:51.188Z,17.78
2022-12-23T18:55:21.115Z,17.79
2022-12-23T18:55:51.084Z,17.78
2022-12-23T18:56:21.313Z,17.78
2022-12-23T18:56:50.987Z,17.76
2022-12-23T18:57:20.930Z,17.72
2022-12-23T18:57:50.889Z,17.68
2022-12-23T18:58:20.842Z,17.74
2022-12-23T18:58:50.802Z,17.74
2022-12-23T18:59:27.381Z,17.74
2022-12-23T18:59:51.693Z,17.78
2022-12-23T19:00:20.660Z,17.72
2022-12-23T19:00:50.619Z,17.70
2022-12-23T19:01:20.619Z,17.71
2022-12-23T19:01:50.536Z,17.74
2022-12-23T19:02:20.542Z,17.76
2022-12-23T19:02:50.545Z,17.76
2022-12-23T19:03:20.338Z,17.74
2022-12-23T19:03:50.321Z,17.74
2022-12-23T19:04:20.276Z,17.72
2022-12-23T19:04:50.204Z,17.74
2022-12-23T19:05:20.142Z,17.74
2022-12-23T19:05:50.114Z,17.80
2022-12-23T19:06:20.050Z,17.70
2022-12-23T19:06:50.012Z,17.78
2022-12-23T19:07:19.950Z,17.74
2022-12-23T19:07:49.918Z,17.76
2022-12-23T19:08:25.853Z,17.72
2022-12-23T19:08:50.823Z,17.76
2022-12-23T19:09:19.750Z,17.74
2022-12-23T19:09:49.739Z,17.76
2022-12-23T19:10:19.690Z,17.78
2022-12-23T19:10:49.650Z,17.82
2022-12-23T19:11:19.555Z,17.76
2022-12-23T19:11:49.513Z,17.80
2022-12-23T19:12:19.496Z,17.72
2022-12-23T19:12:49.412Z,17.72
2022-12-23T19:13:19.353Z,17.82
2022-12-23T19:13:49.364Z,17.71
2022-12-23T19:14:19.273Z,17.72
2022-12-23T19:14:49.215Z,17.82
2022-12-23T19:15:19.155Z,17.71
2022-12-23T19:15:49.316Z,17.71
2022-12-23T19:16:19.178Z,17.79
2022-12-23T19:16:52.054Z,17.74
2022-12-23T19:17:18.959Z,17.72
2022-12-23T19:17:48.917Z,17.80
2022-12-23T19:18:18.866Z,17.78
2022-12-23T19:18:48.819Z,17.72
2022-12-23T19:19:18.757Z,17.79
2022-12-23T19:19:48.709Z,17.78
2022-12-23T19:20:18.671Z,17.87
2022-12-23T19:20:48.609Z,17.76
2022-12-23T19:21:18.568Z,17.85
2022-12-23T19:21:48.584Z,17.82
2022-12-23T19:22:18.463Z,17.83
2022-12-23T19:22:48.952Z,17.82
2022-12-23T19:23:18.388Z,17.85
2022-12-23T19:23:48.333Z,17.83
2022-12-23T19:24:18.295Z,17.83
2022-12-23T19:25:04.438Z,17.86
2022-12-23T19:25:19.175Z,17.90
2022-12-23T19:25:54.914Z,17.83
2022-12-23T19:26:19.099Z,17.89